createdAt,value
2018-12-09T00:01:27.938Z,96835.20
2018-12-09T00:03:58.329Z,96807.48
2018-12-09T00:06:28.405Z,96786.27
2018-12-09T00:08:58.610Z,96791.25
2018-12-09T00:11:28.678Z,96782.16
2018-12-09T00:13:58.637Z,96807.13
2018-12-09T00:16:28.661Z,96786.57
2018-12-09T00:18:58.969Z,96798.86
2018-12-09T00:21:28.941Z,96801.42
2018-12-09T00:23:59.490Z,96802.43
2018-12-09T00:26:34.124Z,96791.48
2018-12-09T00:29:04.382Z,96792.24
2018-12-09T00:31:34.433Z,96784.94
2018-12-09T00:34:04.932Z,96794.64
2018-12-09T00:36:34.921Z,96797.52
2018-12-09T00:39:06.321Z,96798.90
2018-12-09T00:41:37.478Z,96786.76
2018-12-09T00:44:07.662Z,96789.01
2018-12-09T00:46:37.214Z,96798.08
2018-12-09T00:49:07.566Z,96796.84
2018-12-09T00:51:37.157Z,96805.64
2018-12-09T00:54:07.329Z,96813.00
2018-12-09T00:56:37.815Z,96799.52
2018-12-09T00:59:07.952Z,96773.42
2018-12-09T01:01:37.993Z,96753.43
2018-12-09T01:04:09.189Z,96753.44
2018-12-09T01:06:39.321Z,96748.91
2018-12-09T01:09:08.871Z,96744.37
2018-12-09T01:11:39.389Z,96749.91
2018-12-09T01:14:09.413Z,96711.77
2018-12-09T01:16:39.353Z,96765.48
2018-12-09T01:19:09.127Z,96758.66
2018-12-09T01:21:39.366Z,96754.87
2018-12-09T01:24:09.385Z,96750.61
2018-12-09T01:26:39.794Z,96749.47
2018-12-09T01:29:09.866Z,96760.71
2018-12-09T01:31:40.890Z,96756.34
2018-12-09T01:34:11.905Z,96750.53
2018-12-09T01:36:42.273Z,96721.95
2018-12-09T01:39:12.487Z,96746.98
2018-12-09T01:41:41.957Z,96739.37
2018-12-09T01:44:12.421Z,96732.06
2018-12-09T01:46:42.396Z,96739.23
2018-12-09T01:49:12.501Z,96744.48
2018-12-09T01:51:42.893Z,96737.73
2018-12-09T01:54:14.573Z,96722.30
2018-12-09T01:56:44.724Z,96692.38
2018-12-09T01:59:15.809Z,96710.31
2018-12-09T02:01:45.888Z,96700.70
2018-12-09T02:04:16.085Z,96693.09
2018-12-09T02:06:46.586Z,96677.58
2018-12-09T02:09:16.585Z,96700.97
2018-12-09T02:11:48.014Z,96700.59
2018-12-09T02:14:18.913Z,96701.05
2018-12-09T02:16:49.110Z,96701.63
2018-12-09T02:19:22.838Z,96706.64
2018-12-09T02:21:53.181Z,96701.09
2018-12-09T02:24:23.374Z,96717.39
2018-12-09T02:26:53.458Z,96710.70
2018-12-09T02:29:25.194Z,96686.98
2018-12-09T02:31:55.474Z,96705.43
2018-12-09T02:34:25.777Z,96701.52
2018-12-09T02:36:56.351Z,96709.75
2018-12-09T02:39:26.408Z,96713.25
2018-12-09T02:41:56.440Z,96723.61
2018-12-09T02:44:28.134Z,96731.58
2018-12-09T02:46:57.575Z,96715.56
2018-12-09T02:55:42.759Z,96701.61
2018-12-09T02:58:12.953Z,96720.07
2018-12-09T03:00:43.114Z,96701.30
2018-12-09T03:03:13.692Z,96728.30
2018-12-09T03:05:43.847Z,96734.52
2018-12-09T03:08:14.207Z,96742.36
2018-12-09T03:10:45.478Z,96744.42
2018-12-09T03:13:15.620Z,96736.00
2018-12-09T03:15:45.852Z,96735.03
2018-12-09T03:18:16.098Z,96728.02
2018-12-09T03:20:46.293Z,96734.67
2018-12-09T03:23:17.042Z,96740.21
2018-12-09T03:25:47.544Z,96737.58
2018-12-09T03:28:17.615Z,96742.27
2018-12-09T03:30:47.766Z,96725.95
2018-12-09T03:33:18.430Z,96755.02
2018-12-09T03:35:48.729Z,96756.30
2018-12-09T03:38:18.703Z,96758.07
2018-12-09T03:40:49.115Z,96726.83
2018-12-09T03:43:18.726Z,96768.43
2018-12-09T03:45:48.936Z,96791.85
2018-12-09T03:48:19.371Z,96817.83
2018-12-09T03:50:49.406Z,96632.20
2018-12-09T03:53:19.641Z,96820.57
2018-12-09T03:55:50.184Z,96773.34
2018-12-09T03:58:20.561Z,96808.19
2018-12-09T04:00:50.175Z,96821.80
2018-12-09T04:03:20.681Z,96835.06
2018-12-09T04:05:50.587Z,96856.38
2018-12-09T04:08:20.755Z,96810.20
2018-12-09T04:10:51.301Z,96821.06
2018-12-09T04:13:20.923Z,96826.88
2018-12-09T04:15:50.586Z,96838.36
2018-12-09T04:18:21.005Z,96833.07
2018-12-09T04:20:50.741Z,96836.36
2018-12-09T04:23:20.861Z,96828.70
2018-12-09T04:25:51.481Z,96762.28
2018-12-09T04:28:21.399Z,96819.94
2018-12-09T04:30:51.600Z,96818.34
2018-12-09T04:33:21.799Z,96823.13
2018-12-09T04:35:52.248Z,96822.12
2018-12-09T04:38:21.777Z,96851.83
2018-12-09T04:40:51.886Z,96835.71
2018-12-09T04:43:21.858Z,96782.10
2018-12-09T04:45:51.924Z,96827.19
2018-12-09T04:48:21.662Z,96802.06
2018-12-09T04:50:51.739Z,96825.89
2018-12-09T04:53:21.991Z,96856.52
2018-12-09T04:55:52.058Z,96846.83
2018-12-09T04:58:22.783Z,96842.79
2018-12-09T05:00:56.667Z,96846.45
2018-12-09T05:03:26.481Z,96848.70
2018-12-09T05:05:56.232Z,96850.98
2018-12-09T05:08:25.825Z,96852.09
2018-12-09T05:10:56.330Z,96842.65
2018-12-09T05:13:26.456Z,96863.06
2018-12-09T05:15:56.599Z,96860.53
2018-12-09T05:18:26.581Z,96897.71
2018-12-09T05:20:56.839Z,96863.84
2018-12-09T05:23:27.113Z,96847.45
2018-12-09T05:25:57.681Z,96871.25
2018-12-09T05:28:27.817Z,96877.56
2018-12-09T05:30:57.977Z,96875.80
2018-12-09T05:33:28.317Z,96893.66
2018-12-09T05:35:58.391Z,96889.25
2018-12-09T05:38:27.993Z,96865.45
2018-12-09T05:40:58.712Z,96882.25
2018-12-09T05:43:28.814Z,96882.00
2018-12-09T05:45:59.962Z,96886.29
2018-12-09T05:48:30.034Z,96887.18
2018-12-09T05:51:00.684Z,96827.54
2018-12-09T05:53:30.299Z,96893.72
2018-12-09T05:56:00.405Z,96902.40
2018-12-09T05:58:33.400Z,96900.13
2018-12-09T06:01:04.348Z,96903.12
2018-12-09T06:03:36.855Z,96897.76
2018-12-09T06:06:06.567Z,96900.61
2018-12-09T06:08:36.815Z,96910.39
2018-12-09T06:11:21.339Z,96909.05
2018-12-09T06:13:55.417Z,96968.52
2018-12-09T06:16:27.528Z,96912.57
2018-12-09T06:18:58.301Z,96919.11
2018-12-09T06:21:32.191Z,96899.30
2018-12-09T06:24:02.195Z,96921.87
2018-12-09T06:26:31.894Z,96917.34
2018-12-09T06:29:02.154Z,96883.34
2018-12-09T06:31:32.843Z,96906.06
2018-12-09T06:34:03.244Z,96913.50
2018-12-09T06:36:33.458Z,96900.32
2018-12-09T06:39:03.235Z,96972.66
2018-12-09T06:41:33.415Z,96933.03
2018-12-09T06:44:04.435Z,96904.83
2018-12-09T06:46:34.895Z,96919.69
2018-12-09T06:49:05.030Z,96920.98
2018-12-09T06:51:34.866Z,96813.72
2018-12-09T06:54:05.465Z,96917.17
2018-12-09T06:56:35.955Z,96932.27
2018-12-09T06:59:06.542Z,96924.60
2018-12-09T07:01:37.399Z,96935.41
2018-12-09T07:04:09.956Z,96935.79
2018-12-09T07:06:40.222Z,96939.31
2018-12-09T07:09:10.893Z,96946.59
2018-12-09T07:11:40.931Z,96945.72
2018-12-09T07:14:11.094Z,96751.66
2018-12-09T07:16:41.384Z,96941.70
2018-12-09T07:19:12.872Z,96951.64
2018-12-09T07:21:42.552Z,96954.25
2018-12-09T07:24:17.440Z,96964.19
2018-12-09T07:26:47.403Z,96946.28
2018-12-09T07:29:18.098Z,96956.09
2018-12-09T07:31:48.426Z,96839.31
2018-12-09T07:34:18.229Z,96951.78
2018-12-09T07:36:49.673Z,96951.09
2018-12-09T07:39:24.516Z,96988.88
2018-12-09T07:41:54.127Z,96976.31
2018-12-09T07:44:24.362Z,96908.94
2018-12-09T07:46:54.885Z,96957.18
2018-12-09T07:49:24.994Z,96942.27
2018-12-09T07:51:55.903Z,96976.17
2018-12-09T07:54:26.010Z,96987.12
2018-12-09T07:56:56.739Z,96979.33
2018-12-09T07:59:27.152Z,96987.51
2018-12-09T08:01:57.083Z,96883.27
2018-12-09T08:04:26.976Z,96983.86
2018-12-09T08:06:58.270Z,97009.83
2018-12-09T08:09:28.860Z,96998.11
2018-12-09T08:11:58.582Z,96984.75
2018-12-09T08:14:33.326Z,96981.79
2018-12-09T08:17:05.709Z,97002.11
2018-12-09T08:19:36.503Z,96988.45
2018-12-09T08:22:06.675Z,97009.15
2018-12-09T08:24:36.355Z,97007.90
2018-12-09T08:27:08.535Z,96986.05
2018-12-09T08:29:39.652Z,97011.03
2018-12-09T08:32:09.540Z,96973.75
2018-12-09T08:34:39.783Z,97009.70
2018-12-09T08:37:09.735Z,96944.98
2018-12-09T08:39:39.394Z,96923.69
2018-12-09T08:42:09.339Z,96994.02
2018-12-09T08:44:39.223Z,97029.22
2018-12-09T08:47:09.046Z,97029.98
2018-12-09T08:49:39.521Z,97044.56
2018-12-09T08:52:09.254Z,97053.52
2018-12-09T08:54:39.371Z,96801.89
2018-12-09T08:57:09.234Z,97044.45
2018-12-09T08:59:39.318Z,97061.83
2018-12-09T09:02:09.040Z,97058.41
2018-12-09T09:04:39.382Z,97062.56
2018-12-09T09:07:08.934Z,97068.36
2018-12-09T09:09:38.947Z,97062.81
2018-12-09T09:12:08.868Z,96922.34
2018-12-09T09:14:38.761Z,97058.37
2018-12-09T09:17:08.329Z,97075.38
2018-12-09T09:19:38.789Z,97066.55
2018-12-09T09:22:08.587Z,97079.00
2018-12-09T09:24:38.632Z,97057.20
2018-12-09T09:27:08.517Z,97058.77
2018-12-09T09:29:38.166Z,97009.40
2018-12-09T09:32:07.879Z,97079.08
2018-12-09T09:34:38.124Z,97088.02
2018-12-09T09:37:08.271Z,97057.14
2018-12-09T09:39:38.177Z,97078.54
2018-12-09T09:42:08.074Z,97081.31
2018-12-09T09:44:37.651Z,97082.45
2018-12-09T09:47:07.514Z,97076.91
2018-12-09T09:49:38.125Z,97017.70
2018-12-09T09:52:09.203Z,97089.90
2018-12-09T09:54:39.536Z,97003.30
2018-12-09T09:57:09.578Z,96973.84
2018-12-09T09:59:39.198Z,97086.72
2018-12-09T10:02:08.734Z,97095.15
2018-12-09T10:04:39.042Z,97086.45
2018-12-09T10:07:08.534Z,97076.23
2018-12-09T10:09:38.171Z,97073.19
2018-12-09T10:12:08.033Z,97098.73
2018-12-09T10:14:38.155Z,97069.98
2018-12-09T10:17:07.658Z,97076.36
2018-12-09T10:19:37.739Z,97099.42
2018-12-09T10:22:07.249Z,97077.09
2018-12-09T10:24:36.807Z,97083.38
2018-12-09T10:27:06.785Z,97005.53
2018-12-09T10:29:36.482Z,96892.18
2018-12-09T10:32:06.030Z,97061.78
2018-12-09T10:34:38.911Z,97069.55
2018-12-09T10:37:05.707Z,97065.63
2018-12-09T10:39:36.126Z,97082.14
2018-12-09T10:42:06.209Z,97082.73
2018-12-09T10:44:35.762Z,96990.61
2018-12-09T10:47:05.773Z,96853.89
2018-12-09T10:49:35.735Z,97073.92
2018-12-09T10:52:05.720Z,97078.16
2018-12-09T10:54:35.352Z,96803.23
2018-12-09T10:57:05.762Z,97087.10
2018-12-09T10:59:36.397Z,97078.64
2018-12-09T11:02:11.500Z,97070.31
2018-12-09T11:04:41.305Z,97072.47
2018-12-09T11:07:10.786Z,97073.85
2018-12-09T11:09:40.321Z,97078.12
2018-12-09T11:12:10.156Z,97074.45
2018-12-09T11:14:39.846Z,97080.34
2018-12-09T11:17:09.421Z,97069.97
2018-12-09T11:19:39.275Z,97084.88
2018-12-09T11:22:08.802Z,97084.84
2018-12-09T11:24:39.519Z,97097.33
2018-12-09T11:27:11.593Z,97087.48
2018-12-09T11:29:41.729Z,97110.16
2018-12-09T11:32:11.214Z,97110.30
2018-12-09T11:34:41.701Z,97110.06
2018-12-09T11:37:11.278Z,97124.94
2018-12-09T11:39:41.384Z,97110.06
2018-12-09T11:42:11.229Z,97112.25
2018-12-09T11:44:41.468Z,97118.73
2018-12-09T11:47:11.088Z,97141.31
2018-12-09T11:49:42.001Z,97145.52
2018-12-09T11:52:11.642Z,97151.34
2018-12-09T11:54:41.789Z,97138.64
2018-12-09T11:57:11.839Z,97161.38
2018-12-09T11:59:41.421Z,97151.45
2018-12-09T12:02:11.411Z,97173.92
2018-12-09T12:04:41.874Z,97191.22
2018-12-09T12:07:11.419Z,97188.63
2018-12-09T12:09:41.390Z,97196.45
2018-12-09T12:12:11.226Z,97205.82
2018-12-09T12:14:41.161Z,97206.59
2018-12-09T12:17:10.755Z,97197.08
2018-12-09T12:19:41.337Z,97203.91
2018-12-09T12:22:10.874Z,97219.13
2018-12-09T12:24:40.435Z,97221.27
2018-12-09T12:27:10.197Z,97229.47
2018-12-09T12:29:40.394Z,97208.23
2018-12-09T12:32:09.944Z,97230.89
2018-12-09T12:34:40.231Z,97230.02
2018-12-09T12:37:09.859Z,97254.84
2018-12-09T12:39:39.930Z,97217.00
2018-12-09T12:42:10.110Z,97234.23
2018-12-09T12:44:40.201Z,97238.88
2018-12-09T12:47:09.870Z,97246.95
2018-12-09T12:49:40.201Z,97249.62
2018-12-09T12:52:09.806Z,97231.10
2018-12-09T12:54:39.815Z,97240.27
2018-12-09T12:57:09.618Z,97252.13
2018-12-09T12:59:39.513Z,97232.02
2018-12-09T13:02:09.613Z,97264.48
2018-12-09T13:04:39.718Z,97256.53
2018-12-09T13:07:09.958Z,97259.68
2018-12-09T13:09:39.514Z,97237.53
2018-12-09T13:12:09.321Z,97267.61
2018-12-09T13:14:38.866Z,97270.87
2018-12-09T13:17:08.570Z,97270.23
2018-12-09T13:19:38.417Z,97279.27
2018-12-09T13:22:08.518Z,97267.67
2018-12-09T13:24:38.505Z,97268.53
2018-12-09T13:27:08.446Z,97299.12
2018-12-09T13:29:38.587Z,97294.33
2018-12-09T13:32:08.199Z,97299.09
2018-12-09T13:34:38.049Z,97301.86
2018-12-09T13:37:07.597Z,97305.63
2018-12-09T13:39:37.831Z,97306.25
2018-12-09T13:42:08.723Z,97308.90
2018-12-09T13:44:38.286Z,97320.81
2018-12-09T13:47:08.394Z,97313.02
2018-12-09T13:49:38.195Z,97323.70
2018-12-09T13:52:07.795Z,97316.90
2018-12-09T13:54:37.978Z,97324.58
2018-12-09T13:57:07.818Z,97322.81
2018-12-09T13:59:37.875Z,97322.78
2018-12-09T14:02:07.406Z,97327.16
2018-12-09T14:04:37.618Z,97334.45
2018-12-09T14:07:07.722Z,97310.62
2018-12-09T14:09:37.854Z,97338.18
2018-12-09T14:12:07.941Z,97354.00
2018-12-09T14:14:38.035Z,97344.70
2018-12-09T14:17:08.203Z,97344.05
2018-12-09T14:19:38.753Z,97348.30
2018-12-09T14:22:08.878Z,97352.95
2018-12-09T14:24:38.969Z,97287.58
2018-12-09T14:27:08.814Z,97366.62
2018-12-09T14:29:38.654Z,97371.26
2018-12-09T14:32:08.850Z,97355.34
2018-12-09T14:34:38.728Z,97379.39
2018-12-09T14:37:08.309Z,97387.95
2018-12-09T14:39:37.912Z,97394.70
2018-12-09T14:42:07.821Z,97401.11
2018-12-09T14:44:38.843Z,97372.60
2018-12-09T14:47:07.464Z,97396.41
2018-12-09T14:49:38.038Z,97404.19
2018-12-09T14:52:07.635Z,97417.45
2018-12-09T14:54:38.169Z,97422.92
2018-12-09T14:57:08.034Z,97427.94
2018-12-09T14:59:38.257Z,97426.52
2018-12-09T15:02:07.834Z,97434.78
2018-12-09T15:04:37.709Z,97420.61
2018-12-09T15:07:08.195Z,97312.17
2018-12-09T15:09:38.354Z,97465.97
2018-12-09T15:12:08.458Z,97471.61
2018-12-09T15:14:38.045Z,97478.03
2018-12-09T15:17:07.581Z,97483.83
2018-12-09T15:19:38.102Z,97486.11
2018-12-09T15:22:07.687Z,97466.58
2018-12-09T15:24:41.387Z,97492.58
2018-12-09T15:27:07.510Z,97487.33
2018-12-09T15:29:38.190Z,97488.59
2018-12-09T15:32:08.314Z,97490.70
2018-12-09T15:34:39.535Z,97500.03
2018-12-09T15:37:09.491Z,97458.48
2018-12-09T15:39:39.022Z,97480.41
2018-12-09T15:42:08.834Z,97503.96
2018-12-09T15:44:38.982Z,97500.08
2018-12-09T15:47:08.613Z,97519.03
2018-12-09T15:49:38.402Z,97530.97
2018-12-09T15:52:07.873Z,97522.06
2018-12-09T15:54:37.626Z,97529.09
2018-12-09T15:57:08.637Z,97523.19
2018-12-09T15:59:38.211Z,97540.02
2018-12-09T16:02:08.258Z,97536.49
2018-12-09T16:04:38.119Z,97547.54
2018-12-09T16:07:08.370Z,97551.06
2018-12-09T16:09:37.918Z,97547.80
2018-12-09T16:12:07.826Z,97545.77
2018-12-09T16:14:37.962Z,97546.77
2018-12-09T16:17:07.490Z,97550.41
2018-12-09T16:19:37.303Z,97559.08
2018-12-09T16:22:06.931Z,97549.52
2018-12-09T16:24:36.469Z,97558.16
2018-12-09T16:27:06.430Z,97572.71
2018-12-09T16:29:36.062Z,97558.91
2018-12-09T16:32:05.629Z,97576.86
2018-12-09T16:34:35.463Z,97561.54
2018-12-09T16:37:05.469Z,97566.17
2018-12-09T16:39:34.971Z,97605.22
2018-12-09T16:42:04.891Z,97561.00
2018-12-09T16:44:34.402Z,97577.23
2018-12-09T16:47:03.940Z,97589.77
2018-12-09T16:49:33.782Z,97575.47
2018-12-09T16:52:03.307Z,97595.80
2018-12-09T16:54:32.956Z,97597.44
2018-12-09T16:57:02.777Z,97624.68
2018-12-09T16:59:32.277Z,97588.25
2018-12-09T17:02:01.823Z,97617.01
2018-12-09T17:04:31.849Z,97626.57
2018-12-09T17:07:02.009Z,97624.47
2018-12-09T17:09:31.611Z,97636.92
2018-12-09T17:12:01.892Z,97632.55
2018-12-09T17:14:32.159Z,97642.34
2018-12-09T17:17:01.134Z,97598.53
2018-12-09T17:19:30.924Z,97591.76
2018-12-09T17:22:00.406Z,97662.03
2018-12-09T17:24:29.943Z,97583.66
2018-12-09T17:26:59.717Z,97664.69
2018-12-09T17:29:31.475Z,97667.17
2018-12-09T17:32:00.972Z,97678.33
2018-12-09T17:34:31.262Z,97674.39
2018-12-09T17:37:01.690Z,97682.22
2018-12-09T17:39:31.294Z,97687.92
2018-12-09T17:42:01.135Z,97707.05
2018-12-09T17:44:30.720Z,97706.56
2018-12-09T17:47:00.238Z,97713.38
2018-12-09T17:49:30.046Z,97718.18
2018-12-09T17:51:59.621Z,97718.08
2018-12-09T17:54:29.281Z,97688.41
2018-12-09T17:56:59.300Z,97737.34
2018-12-09T17:59:29.085Z,97744.66
2018-12-09T18:02:05.281Z,97746.94
2018-12-09T18:04:35.223Z,97753.11
2018-12-09T18:07:04.827Z,97749.31
2018-12-09T18:09:34.410Z,97755.33
2018-12-09T18:12:04.449Z,97758.09
2018-12-09T18:14:33.993Z,97729.02
2018-12-09T18:17:03.493Z,97772.40
2018-12-09T18:19:33.343Z,97787.95
2018-12-09T18:22:02.889Z,97794.86
2018-12-09T18:24:32.422Z,97794.09
2018-12-09T18:27:02.290Z,97798.47
2018-12-09T18:29:32.742Z,97803.77
2018-12-09T18:32:02.311Z,97808.52
2018-12-09T18:34:32.994Z,97794.87
2018-12-09T18:37:02.637Z,97823.31
2018-12-09T18:39:32.231Z,97836.61
2018-12-09T18:42:02.086Z,97846.56
2018-12-09T18:44:31.663Z,97840.14
2018-12-09T18:47:01.304Z,97833.93
2018-12-09T18:49:31.163Z,97853.06
2018-12-09T18:52:00.682Z,97853.39
2018-12-09T18:54:30.266Z,97866.89
2018-12-09T18:57:00.106Z,97875.27
2018-12-09T18:59:29.621Z,97878.52
2018-12-09T19:01:59.188Z,97851.73
2018-12-09T19:04:33.701Z,97882.34
2018-12-09T19:07:03.461Z,97912.19
2018-12-09T19:09:33.182Z,97831.02
2018-12-09T19:12:03.187Z,97908.97
2018-12-09T19:14:32.762Z,97913.30
2018-12-09T19:17:02.451Z,97921.30
2018-12-09T19:19:32.303Z,97876.89
2018-12-09T19:22:02.053Z,97884.08
2018-12-09T19:24:31.658Z,97947.67
2018-12-09T19:27:02.322Z,97916.55
2018-12-09T19:29:31.871Z,97948.21
2018-12-09T19:32:01.538Z,97951.06
2018-12-09T19:34:31.449Z,97962.08
2018-12-09T19:37:02.133Z,97916.73
2018-12-09T19:39:32.159Z,97977.30
2018-12-09T19:42:02.598Z,97946.12
2018-12-09T19:44:32.161Z,97974.27
2018-12-09T19:47:01.834Z,97981.91
2018-12-09T19:49:31.875Z,97980.02
2018-12-09T19:52:01.517Z,98011.16
2018-12-09T19:57:07.170Z,97932.86
2018-12-09T19:59:36.779Z,98013.42
2018-12-09T20:02:06.380Z,98016.84
2018-12-09T20:04:36.882Z,98020.34
2018-12-09T20:07:06.435Z,98024.73
2018-12-09T20:09:35.982Z,98023.70
2018-12-09T20:12:18.284Z,98028.25
2018-12-09T20:14:47.802Z,98024.42
2018-12-09T20:17:17.310Z,98025.54
2018-12-09T20:19:47.277Z,97997.37
2018-12-09T20:22:21.429Z,98044.45
2018-12-09T20:24:50.990Z,98063.95
2018-12-09T20:27:20.915Z,98059.33
2018-12-09T20:29:50.485Z,98056.48
2018-12-09T20:32:20.047Z,98071.11
2018-12-09T20:34:49.902Z,98070.63
2018-12-09T20:37:19.419Z,98058.22
2018-12-09T20:39:49.305Z,98136.91
2018-12-09T20:42:19.697Z,98082.15
2018-12-09T20:44:49.272Z,98093.28
2018-12-09T20:47:19.090Z,98097.56
2018-12-09T20:49:49.556Z,98093.80
2018-12-09T20:52:20.159Z,98046.17
2018-12-09T20:54:49.720Z,98103.98
2018-12-09T20:57:20.473Z,98112.91
2018-12-09T20:59:51.815Z,98119.56
2018-12-09T21:02:22.763Z,98115.28
2018-12-09T21:04:53.040Z,98122.80
2018-12-09T21:07:25.134Z,98122.19
2018-12-09T21:09:53.562Z,98144.47
2018-12-09T21:12:25.228Z,98142.39
2018-12-09T21:14:54.986Z,98147.48
2018-12-09T21:17:25.228Z,98064.85
2018-12-09T21:19:55.546Z,98159.38
2018-12-09T21:22:25.216Z,98147.70
2018-12-09T21:24:56.122Z,98173.41
2018-12-09T21:27:26.434Z,98177.73
2018-12-09T21:29:55.962Z,98186.19
2018-12-09T21:32:26.110Z,98177.69
2018-12-09T21:34:56.540Z,98191.70
2018-12-09T21:37:26.474Z,98201.54
2018-12-09T21:39:56.608Z,98205.33
2018-12-09T21:42:27.073Z,98210.98
2018-12-09T21:44:57.221Z,98221.26
2018-12-09T21:47:27.171Z,98220.27
2018-12-09T21:49:57.034Z,98226.95
2018-12-09T21:52:26.633Z,98227.69
2018-12-09T21:54:56.165Z,98235.50
2018-12-09T21:57:25.964Z,98236.27
2018-12-09T21:59:55.505Z,98239.56
2018-12-09T22:02:24.999Z,98254.45
2018-12-09T22:04:55.934Z,98251.34
2018-12-09T22:07:25.995Z,98251.91
2018-12-09T22:09:56.018Z,98255.13
2018-12-09T22:12:30.210Z,98254.06
2018-12-09T22:14:59.770Z,98207.25
2018-12-09T22:17:29.564Z,98252.52
2018-12-09T22:19:59.690Z,98255.06
2018-12-09T22:22:29.886Z,98269.09
2018-12-09T22:25:00.817Z,98206.12
2018-12-09T22:27:30.457Z,98266.88
2018-12-09T22:30:00.569Z,98286.20
2018-12-09T22:32:30.480Z,98276.45
2018-12-09T22:35:00.033Z,98269.53
2018-12-09T22:37:30.189Z,98276.34
2018-12-09T22:40:00.229Z,98304.87
2018-12-09T22:42:29.778Z,98280.55
2018-12-09T22:44:59.329Z,98293.05
2018-12-09T22:47:29.189Z,98346.05
2018-12-09T22:49:58.963Z,98295.84
2018-12-09T22:52:28.701Z,98269.75
2018-12-09T22:54:58.474Z,98329.23
2018-12-09T22:57:28.429Z,98333.17
2018-12-09T22:59:58.031Z,98351.91
2018-12-09T23:02:33.002Z,98353.00
2018-12-09T23:05:02.664Z,98356.69
2018-12-09T23:07:37.639Z,98364.89
2018-12-09T23:10:08.051Z,98376.47
2018-12-09T23:12:38.109Z,98376.94
2018-12-09T23:15:08.099Z,98374.27
2018-12-09T23:17:38.348Z,98385.47
2018-12-09T23:20:08.757Z,98370.30
2018-12-09T23:22:38.470Z,98321.45
2018-12-09T23:25:08.421Z,98367.86
2018-12-09T23:27:38.976Z,98392.13
2018-12-09T23:30:10.410Z,98394.22
2018-12-09T23:32:39.957Z,98393.69
2018-12-09T23:35:09.985Z,98400.03
2018-12-09T23:37:39.998Z,98398.26
2018-12-09T23:40:10.322Z,98404.16
2018-12-09T23:42:40.837Z,98406.45
2018-12-09T23:45:11.122Z,98409.14
2018-12-09T23:47:40.657Z,98425.87
2018-12-09T23:50:11.086Z,98423.50
2018-12-09T23:52:41.430Z,98418.13
2018-12-09T23:55:11.394Z,98407.63
2018-12-09T23:57:41.190Z,98422.12
